LSZG Airport Information

Runway Information
Runway 07 Length 0 ft width 0 ft
Elevation 1407 ft Threshold 0 ft Heading 0
Runway 25 Length 0 ft Width 0 ft
Elevation 1407 ft Threshold 0 ft Heading 0
Runway 07C Length 3281 ft width 75 ft
Elevation 1407 ft Threshold 443 ft Heading 66
Runway 25C Length 3281 ft Width 75 ft
Elevation 1405 ft Threshold 0 ft Heading 246
Runway 07L Length 1640 ft width 98 ft
Elevation 0 ft Threshold 213 ft Heading 66
Runway 25R Length 1640 ft Width 98 ft
Elevation 0 ft Threshold 85 ft Heading 246
Runway 07R Length 2297 ft width 66 ft
Elevation 0 ft Threshold 459 ft Heading 70
Runway 25L Length 2297 ft Width 66 ft
Elevation 0 ft Threshold 0 ft Heading 250
Airport Frequencies
Type APP Name Bern Appro Frequency 127.325 MHZ
Type ATIS Name ATIS Frequency 121.1 MHZ
Type GND Name GND Frequency 121.8 MHZ
Type TWR Name ge, en Frequency 120.1 MHZ
Airport Navaids
Type VOR-DME Name Grenchen Frequency 115450 KHZ
Type NDB Name Grenchen Frequency 326 KHZ
Airport Weather Information & NOTAM
ADDS - METARS form results

(0712 UTC 15 December 2018)
Data provider http://aviationweather.gov/metar/data/
 
METAR text: LSZG 150650Z 05008KT 9999 OVC021 M01/M05 Q1022 NOSIG
Conditions at: LSZG (GRENCHEN , CH) observed 0650 UTC 15 December 2018
Temperature: -1.0°C (30°F)
Dewpoint: -5.0°C (23°F) [RH = 74%]
Pressure (altimeter): 30.18 inches Hg (1022.0 mb)
Winds: from the NE (50 degrees) at 9 MPH (8 knots; 4.1 m/s)
Visibility: 6 or more miles (10+ km)
Ceiling: 2100 feet AGL
Clouds: overcast cloud deck at 2100 feet AGL
Weather: no significant weather observed at this time

METAR text: LSZG 150620Z 04010KT 9999 OVC021 M01/M05 Q1022 NOSIG
Conditions at: LSZG (GRENCHEN , CH) observed 0620 UTC 15 December 2018
Temperature: -1.0°C (30°F)
Dewpoint: -5.0°C (23°F) [RH = 74%]
Pressure (altimeter): 30.18 inches Hg (1022.0 mb)
Winds: from the NE (40 degrees) at 12 MPH (10 knots; 5.1 m/s)
Visibility: 6 or more miles (10+ km)
Ceiling: 2100 feet AGL
Clouds: overcast cloud deck at 2100 feet AGL
Weather: no significant weather observed at this time

Forecast for: LSZG (GRENCHEN , CH)
Text: TAF LSZG 150525Z 1506/1515 07006KT 9999 BKN020
Forecast period: 0600 to 1500 UTC 15 December 2018
Forecast type: FROM: standard forecast or significant change
Winds: from the ENE (70 degrees) at 7 MPH (6 knots; 3.1 m/s)
Visibility: 6 or more miles 10+ km)
Ceiling: 2000 feet AGL
Clouds: broken clouds at 2000 feet AGL
Weather: no significant weather forecast for this period
Text: PROB40
Forecast period: 1300 to 1500 UTC 15 December 2018
Forecast type: TEMPORARY: The following changes expected for less than half the time period
Visibility: 6 or more miles 10+ km)
Ceiling: unknown
Clouds: missing
Weather: NSW  (no significant weather)